Star Lygra — V7FA7 — position and weather

sailwx.info

Track history (hours):
 
Tides and Currents Weather Stations Pressure Air Temp Water Temp Dewpoint Dewpoint Depression Visibility Wind Speed Wind Dir Waves Ship Positions

Star Lygra

Last reported at 2018-Jul-21 07:09 UTC. Time now 2018-Jul-22 12:48 UTC.
Position N 31°58' W 080°19'.

Length 204 m; draft 7.9 m.

Type: Cargo ship. MMSI: 538005562.

Date/timePositionNaut miles runAvg speedWind from/ knotsBaromVisibWave heightAir tempDewpointWater temp
2018-Jul-21 07:09N 31°58' W 080°19'314.1
2018-Jul-21 06:58N 31°58' W 080°22'714.0
2018-Jul-21 06:30N 31°57' W 080°30'713.9
2018-Jul-21 06:00N 31°57' W 080°38'612.5
2018-Jul-21 05:30N 31°59' W 080°45'612.0
2018-Jul-21 05:00N 32°02' W 080°51'5 9.8
2018-Jul-21 04:30N 32°04' W 080°57'5 8.6
2018-Jul-21 03:58N 32°05' W 081°02'3 7.5
2018-Jul-21 03:30N 32°05' W 081°06'1 2.6
2018-Jul-21 03:00N 32°06' W 081°07'1 2.3
2018-Jul-21 02:27N 32°05' W 081°06'0 0.0
2018-Jul-21 01:57N 32°05' W 081°06'0 0.0
2018-Jul-21 01:27N 32°05' W 081°06'0 0.0
2018-Jul-21 00:57N 32°05' W 081°06'0 0.0
2018-Jul-21 00:27N 32°05' W 081°06'0 0.0
2018-Jul-20 23:51N 32°05' W 081°06'0 0.0
2018-Jul-20 23:27N 32°05' W 081°06'0 0.0
2018-Jul-20 22:57N 32°05' W 081°06'0 0.0
2018-Jul-20 22:27N 32°05' W 081°06'0 0.0
2018-Jul-20 21:57N 32°05' W 081°06'0 0.0
2018-Jul-20 21:27N 32°05' W 081°06'0 0.0
2018-Jul-20 20:51N 32°05' W 081°06'0 0.0
2018-Jul-20 20:27N 32°05' W 081°06'0 0.0
2018-Jul-20 19:57N 32°05' W 081°06'0 0.0
2018-Jul-20 19:27N 32°05' W 081°06'0 0.0
2018-Jul-20 18:57N 32°05' W 081°06'0 0.0
2018-Jul-20 18:15N 32°05' W 081°06'0 0.0
2018-Jul-20 17:51N 32°05' W 081°06'0 0.0
2018-Jul-20 17:27N 32°05' W 081°06'0 0.0
2018-Jul-20 16:57N 32°05' W 081°06'0 0.0
2018-Jul-20 16:27N 32°05' W 081°06'0 0.0
2018-Jul-20 15:57N 32°05' W 081°06'0 0.0
2018-Jul-20 15:27N 32°05' W 081°06'0 0.0
2018-Jul-20 14:57N 32°05' W 081°06'0 0.0
2018-Jul-20 14:27N 32°05' W 081°06'0 0.0
2018-Jul-20 13:57N 32°05' W 081°06'0 0.0
2018-Jul-20 13:27N 32°05' W 081°06'0 0.0
2018-Jul-20 12:57N 32°05' W 081°06'0 0.0
2018-Jul-20 12:27N 32°05' W 081°06'0 0.0
2018-Jul-20 11:57N 32°05' W 081°06'0 0.0
2018-Jul-20 11:27N 32°05' W 081°06'0 0.0
2018-Jul-20 10:57N 32°05' W 081°06'0 0.0
2018-Jul-20 10:27N 32°05' W 081°06'0 0.0
2018-Jul-20 09:57N 32°05' W 081°06'0 0.0
2018-Jul-20 09:27N 32°05' W 081°06'0 0.0
2018-Jul-20 08:57N 32°05' W 081°06'0 0.0
2018-Jul-20 08:27N 32°05' W 081°06'0 0.0
2018-Jul-20 07:57N 32°05' W 081°06'0 0.0
2018-Jul-20 07:27N 32°05' W 081°06'0 0.0
2018-Jul-20 06:51N 32°05' W 081°06'0 0.0
2018-Jul-20 06:27N 32°05' W 081°06'0 0.0
2018-Jul-20 05:57N 32°05' W 081°06'0 0.0
2018-Jul-20 05:27N 32°05' W 081°06'0 0.0
2018-Jul-20 04:57N 32°05' W 081°06'0 0.0
2018-Jul-20 04:27N 32°05' W 081°06'0 0.0
2018-Jul-20 03:39N 32°05' W 081°06'0 0.0
2018-Jul-20 03:27N 32°05' W 081°06'0 0.0
2018-Jul-20 02:57N 32°05' W 081°06'0 0.0
2018-Jul-20 02:21N 32°05' W 081°06'0 0.0
2018-Jul-20 01:57N 32°05' W 081°06'0 0.0
2018-Jul-20 01:27N 32°05' W 081°06'0 0.0
2018-Jul-20 00:57N 32°05' W 081°06'0 0.0
2018-Jul-20 00:27N 32°05' W 081°06'0 0.0
2018-Jul-19 23:57N 32°05' W 081°06'0 0.0
2018-Jul-19 23:21N 32°05' W 081°06'0 0.0
2018-Jul-19 22:57N 32°05' W 081°06'0 0.0
2018-Jul-19 22:27N 32°05' W 081°06'0 0.0
2018-Jul-19 21:57N 32°05' W 081°06'0 0.0
2018-Jul-19 21:27N 32°05' W 081°06'0 0.0
2018-Jul-19 20:51N 32°05' W 081°06'0 0.0
2018-Jul-19 20:27N 32°05' W 081°06'0 0.0
2018-Jul-19 19:57N 32°05' W 081°06'0 0.0
2018-Jul-19 19:27N 32°05' W 081°06'0 0.0
2018-Jul-19 18:57N 32°05' W 081°06'0 0.0
2018-Jul-19 18:27N 32°05' W 081°06'0 0.0
2018-Jul-19 17:57N 32°05' W 081°06'0 0.0
2018-Jul-19 17:21N 32°05' W 081°06'0 0.0
2018-Jul-19 16:57N 32°05' W 081°06'0 0.0
2018-Jul-19 16:21N 32°05' W 081°06'0 0.0
2018-Jul-19 15:57N 32°05' W 081°06'0 0.0
2018-Jul-19 15:21N 32°05' W 081°06'0 0.0
2018-Jul-19 14:57N 32°05' W 081°06'0 0.0
2018-Jul-19 14:27N 32°05' W 081°06'0 0.0
2018-Jul-19 13:27N 32°05' W 081°06'0 0.0
2018-Jul-19 12:57N 32°05' W 081°06'0 0.0
2018-Jul-19 12:27N 32°05' W 081°06'0 0.0
2018-Jul-19 11:57N 32°05' W 081°06'0 0.0
2018-Jul-19 11:27N 32°05' W 081°06'0 0.0
2018-Jul-19 10:51N 32°05' W 081°06'0 0.0
2018-Jul-19 10:27N 32°05' W 081°06'0 0.0
2018-Jul-19 09:57N 32°05' W 081°06'0 0.0
2018-Jul-19 09:27N 32°05' W 081°06'0 0.0
2018-Jul-19 08:57N 32°05' W 081°06'0 0.0
2018-Jul-19 08:27N 32°05' W 081°06'0 0.0
2018-Jul-19 07:57N 32°05' W 081°06'0 0.0
2018-Jul-19 07:27N 32°05' W 081°06'0 0.0
2018-Jul-19 06:57N 32°05' W 081°06'0 0.0
2018-Jul-19 06:27N 32°05' W 081°06'0 0.0
2018-Jul-19 05:51N 32°05' W 081°06'0 0.0
2018-Jul-19 05:27N 32°05' W 081°06'0 0.0
2018-Jul-19 04:45N 32°05' W 081°06'0 0.0
2018-Jul-19 04:27N 32°05' W 081°06'0 0.0
2018-Jul-19 03:57N 32°05' W 081°06'0 0.0
2018-Jul-19 03:27N 32°05' W 081°06'0 0.0
2018-Jul-19 02:57N 32°05' W 081°06'0 0.0
2018-Jul-19 02:27N 32°05' W 081°06'0 0.0
2018-Jul-19 01:57N 32°05' W 081°06'0 0.0
2018-Jul-19 01:27N 32°05' W 081°06'0 0.0
2018-Jul-19 00:57N 32°05' W 081°06'0 0.0
2018-Jul-19 00:27N 32°05' W 081°06'0 0.0
2018-Jul-18 23:57N 32°05' W 081°06'0 0.0
2018-Jul-18 23:27N 32°05' W 081°06'0 0.0
2018-Jul-18 22:57N 32°05' W 081°06'0 0.0
2018-Jul-18 22:27N 32°05' W 081°06'0 0.0
2018-Jul-18 21:45N 32°05' W 081°06'0 0.0
2018-Jul-18 21:27N 32°05' W 081°06'0 0.0
2018-Jul-18 20:57N 32°05' W 081°06'0 0.0
2018-Jul-18 20:27N 32°05' W 081°06'0 0.0
2018-Jul-18 19:57N 32°05' W 081°06'0 0.0
2018-Jul-18 19:27N 32°05' W 081°06'0 0.0
2018-Jul-18 18:57N 32°05' W 081°06'0 0.0
2018-Jul-18 18:27N 32°05' W 081°06'0 0.0
2018-Jul-18 17:57N 32°05' W 081°06'0 0.0
2018-Jul-18 17:27N 32°05' W 081°06'0 0.0
2018-Jul-18 16:57N 32°05' W 081°06'0 0.0
2018-Jul-18 16:27N 32°05' W 081°06'0 0.0
2018-Jul-18 15:57N 32°05' W 081°06'0 0.0
2018-Jul-18 15:27N 32°05' W 081°06'0 0.0
2018-Jul-18 14:57N 32°05' W 081°06'0 0.0
2018-Jul-18 14:27N 32°05' W 081°06'0 0.0
2018-Jul-18 13:27N 32°05' W 081°06'0 0.0
2018-Jul-18 12:57N 32°05' W 081°06'0 0.0
2018-Jul-18 12:27N 32°05' W 081°06'0 0.0
2018-Jul-18 11:45N 32°05' W 081°06'0 0.0
2018-Jul-18 11:27N 32°05' W 081°06'0 0.0
2018-Jul-18 10:21N 32°05' W 081°06'0 0.0
2018-Jul-18 09:57N 32°05' W 081°06'0 0.0
2018-Jul-18 09:27N 32°05' W 081°06'0 0.0
2018-Jul-18 08:51N 32°05' W 081°06'0 0.0
2018-Jul-18 08:27N 32°05' W 081°06'0 0.0
2018-Jul-18 07:57N 32°05' W 081°06'0 0.0
2018-Jul-18 07:27N 32°05' W 081°06'0 0.0
2018-Jul-18 06:57N 32°05' W 081°06'0 0.0
2018-Jul-18 06:27N 32°05' W 081°06'0 0.0
2018-Jul-18 05:57N 32°05' W 081°06'0 0.0
2018-Jul-18 05:27N 32°05' W 081°06'0 0.0
2018-Jul-18 04:57N 32°05' W 081°06'0 0.0
2018-Jul-18 04:27N 32°05' W 081°06'0 0.0
2018-Jul-18 03:51N 32°05' W 081°06'0 0.9
2018-Jul-18 03:30N 32°05' W 081°06'4 7.7
2018-Jul-18 03:00N 32°05' W 081°01'611.9
2018-Jul-18 02:30N 32°02' W 080°55'713.3
2018-Jul-18 02:00N 32°00' W 080°48'612.7
2018-Jul-18 01:31N 31°57' W 080°41'4 8.9
2018-Jul-18 01:00N 31°58' W 080°36'613.1
2018-Jul-18 00:31N 31°60' W 080°29'611.2
2018-Jul-18 00:00N 32°02' W 080°23'713.3
2018-Jul-17 23:28N 32°06' W 080°16'44 9.5
2018-Jul-17 18:52N 32°44' W 079°51'512.6
2018-Jul-17 18:30N 32°47' W 079°55'1 2.0
2018-Jul-17 18:00N 32°48' W 079°56'0 0.0
2018-Jul-17 17:30N 32°48' W 079°56'0 0.0
2018-Jul-17 17:00N 32°48' W 079°56'0 0.0
2018-Jul-17 16:30N 32°48' W 079°56'0 0.0
2018-Jul-17 16:00N 32°48' W 079°56'0 0.0
2018-Jul-17 15:30N 32°48' W 079°56'0 0.0
2018-Jul-17 15:00N 32°48' W 079°56'0 0.0
2018-Jul-17 14:30N 32°48' W 079°56'0 0.0
2018-Jul-17 14:00N 32°48' W 079°56'0 0.0
2018-Jul-17 13:30N 32°48' W 079°56'0 0.0
2018-Jul-17 13:00N 32°48' W 079°56'0 0.0
2018-Jul-17 12:30N 32°48' W 079°56'0 0.0
2018-Jul-17 12:00N 32°48' W 079°56'0 0.0
2018-Jul-17 11:27N 32°48' W 079°56'0 0.0
2018-Jul-17 10:57N 32°48' W 079°56'0 0.0
2018-Jul-17 10:24N 32°48' W 079°56'0 0.0
2018-Jul-17 10:00N 32°48' W 079°56'0 0.0
2018-Jul-17 09:30N 32°48' W 079°56'0 0.0
2018-Jul-17 09:00N 32°48' W 079°56'0 0.0
2018-Jul-17 08:30N 32°48' W 079°56'0 0.0
2018-Jul-17 08:00N 32°48' W 079°56'0 0.0
2018-Jul-17 07:30N 32°48' W 079°56'0 0.0
2018-Jul-17 07:00N 32°48' W 079°56'0 0.0
2018-Jul-17 06:30N 32°48' W 079°56'0 0.0
2018-Jul-17 06:00N 32°48' W 079°56'0 0.0
2018-Jul-17 05:30N 32°48' W 079°56'0 0.0
2018-Jul-17 05:00N 32°48' W 079°56'0 0.0
2018-Jul-17 04:30N 32°48' W 079°56'0 0.0
2018-Jul-17 04:00N 32°48' W 079°56'0 0.0
2018-Jul-17 03:30N 32°48' W 079°56'0 0.0
2018-Jul-17 03:00N 32°48' W 079°56'0 0.0
2018-Jul-17 02:30N 32°48' W 079°56'0 0.0
2018-Jul-17 02:00N 32°48' W 079°56'0 0.0
2018-Jul-17 01:30N 32°48' W 079°56'0 0.0
2018-Jul-17 01:00N 32°48' W 079°56'0 0.0
2018-Jul-17 00:30N 32°48' W 079°56'1 1.4
2018-Jul-16 23:30N 32°47' W 079°54'611.2
2018-Jul-16 23:00N 32°44' W 079°49'315 9.5
2018-Jul-15 13:52N 36°34' W 075°29'613.0
2018-Jul-15 13:23N 36°39' W 075°35'513.1
2018-Jul-15 13:00N 36°42' W 075°39'713.2
2018-Jul-15 12:30N 36°47' W 075°44'713.6
2018-Jul-15 12:00N 36°51' W 075°52'813.0
2018-Jul-15 11:25N 36°57' W 075°58'411.1
2018-Jul-15 11:00N 37°00' W 076°02'1016.9
2018-Jul-15 10:24N 37°09' W 076°09'816.1
2018-Jul-15 09:55N 37°16' W 076°07'616.0
2018-Jul-15 09:31N 37°23' W 076°05'915.2
2018-Jul-15 08:55N 37°31' W 076°03'614.7
2018-Jul-15 08:30N 37°37' W 076°06'815.1
2018-Jul-15 08:00N 37°43' W 076°11'714.5
2018-Jul-15 07:30N 37°51' W 076°10'713.5
2018-Jul-15 07:00N 37°57' W 076°11'814.4
2018-Jul-15 06:27N 38°05' W 076°13'714.6
2018-Jul-15 06:00N 38°11' W 076°14'714.7
2018-Jul-15 05:30N 38°18' W 076°18'814.9
2018-Jul-15 05:00N 38°25' W 076°21'815.3
2018-Jul-15 04:30N 38°32' W 076°25'714.8
2018-Jul-15 04:00N 38°39' W 076°25'815.0
2018-Jul-15 03:30N 38°47' W 076°25'815.1
2018-Jul-15 03:00N 38°54' W 076°24'714.2
2018-Jul-15 02:30N 39°01' W 076°23'713.1
2018-Jul-15 02:00N 39°08' W 076°24'611.1
2018-Jul-15 01:30N 39°12' W 076°29'5 9.4
2018-Jul-15 01:00N 39°15' W 076°34'1 1.5
2018-Jul-15 00:30N 39°16' W 076°34'0 0.0
2018-Jul-15 00:00N 39°16' W 076°34'0 0.0
2018-Jul-14 23:30N 39°16' W 076°34'0 0.0
2018-Jul-14 22:59N 39°16' W 076°34'0 0.0
2018-Jul-14 22:30N 39°16' W 076°34'0 0.0
2018-Jul-14 22:00N 39°16' W 076°34'0 0.0
2018-Jul-14 21:30N 39°16' W 076°34'0 0.0
2018-Jul-14 21:00N 39°16' W 076°34'0 0.0
2018-Jul-14 20:30N 39°16' W 076°34'0 0.0
2018-Jul-14 20:00N 39°16' W 076°34'0 0.0
2018-Jul-14 19:30N 39°16' W 076°34'0 0.0
2018-Jul-14 18:59N 39°16' W 076°34'0 0.0
2018-Jul-14 18:30N 39°16' W 076°34'0 0.0
2018-Jul-14 17:59N 39°16' W 076°34'0 0.0
2018-Jul-14 17:29N 39°16' W 076°34'0 0.0
2018-Jul-14 16:59N 39°16' W 076°34'0 0.0
2018-Jul-14 16:30N 39°16' W 076°34'0 0.0
2018-Jul-14 16:00N 39°16' W 076°34'0 0.0
2018-Jul-14 15:30N 39°16' W 076°34'0 0.0
2018-Jul-14 15:00N 39°16' W 076°34'0 0.0
2018-Jul-14 14:29N 39°16' W 076°34'0 0.0
2018-Jul-14 13:30N 39°16' W 076°34'0 0.0
2018-Jul-14 12:59N 39°16' W 076°34'0 0.0
2018-Jul-14 12:30N 39°16' W 076°34'0 0.0
2018-Jul-14 12:00N 39°16' W 076°34'0 0.0
2018-Jul-14 11:29N 39°16' W 076°34'0 0.0
2018-Jul-14 10:59N 39°16' W 076°34'0 0.0
2018-Jul-14 10:29N 39°16' W 076°34'0 0.0
2018-Jul-14 09:59N 39°16' W 076°34'0 0.0
2018-Jul-14 09:30N 39°16' W 076°34'0 0.0
2018-Jul-14 08:59N 39°16' W 076°34'0 0.0
2018-Jul-14 08:30N 39°16' W 076°34'0 0.0
2018-Jul-14 07:59N 39°16' W 076°34'0 0.0
2018-Jul-14 07:29N 39°16' W 076°34'0 0.0
2018-Jul-14 06:59N 39°16' W 076°34'0 0.0
2018-Jul-14 06:29N 39°16' W 076°34'0 0.0
2018-Jul-14 06:00N 39°16' W 076°34'0 0.0
2018-Jul-14 05:29N 39°16' W 076°34'0 0.0
2018-Jul-14 04:59N 39°16' W 076°34'0 0.0
2018-Jul-14 04:30N 39°16' W 076°34'0 0.0
2018-Jul-14 03:59N 39°16' W 076°34'0 0.0
2018-Jul-14 03:29N 39°16' W 076°34'0 0.0
2018-Jul-14 02:59N 39°16' W 076°34'0 0.0
2018-Jul-14 02:29N 39°16' W 076°34'0 0.0
2018-Jul-14 02:00N 39°16' W 076°34'0 0.0
2018-Jul-14 01:29N 39°16' W 076°34'0 0.0
2018-Jul-14 01:00N 39°16' W 076°34'0 0.0
2018-Jul-14 00:29N 39°16' W 076°34'0 0.0
2018-Jul-13 23:59N 39°16' W 076°34'0 0.0
2018-Jul-13 23:29N 39°16' W 076°34'0 0.0
2018-Jul-13 23:00N 39°16' W 076°34'0 0.0
2018-Jul-13 22:29N 39°16' W 076°34'0 0.0
2018-Jul-13 21:59N 39°16' W 076°34'0 0.0
2018-Jul-13 21:29N 39°16' W 076°34'0 0.0
2018-Jul-13 20:59N 39°16' W 076°34'0 0.0
2018-Jul-13 20:29N 39°16' W 076°34'0 0.0
2018-Jul-13 19:59N 39°16' W 076°34'0 0.0
2018-Jul-13 19:30N 39°16' W 076°34'0 0.0
2018-Jul-13 18:59N 39°16' W 076°34'0 0.0
2018-Jul-13 18:29N 39°16' W 076°34'0 0.0
2018-Jul-13 17:59N 39°16' W 076°34'0 0.0
2018-Jul-13 17:30N 39°16' W 076°34'0 0.0
2018-Jul-13 16:59N 39°16' W 076°34'0 0.0
2018-Jul-13 16:29N 39°16' W 076°34'0 0.0
2018-Jul-13 16:00N 39°16' W 076°34'0 0.0
2018-Jul-13 15:29N 39°16' W 076°34'0 0.0
2018-Jul-13 14:59N 39°16' W 076°34'0 0.0
2018-Jul-13 14:29N 39°16' W 076°34'0 0.0
2018-Jul-13 13:29N 39°16' W 076°34'0 0.0
2018-Jul-13 12:59N 39°16' W 076°34'0 0.0
2018-Jul-13 12:29N 39°16' W 076°34'0 0.0
2018-Jul-13 11:59N 39°16' W 076°34'0 0.0
2018-Jul-13 11:29N 39°16' W 076°34'0 0.0
2018-Jul-13 11:00N 39°16' W 076°34'0 0.0
2018-Jul-13 10:30N 39°16' W 076°34'0 0.0
2018-Jul-13 09:59N 39°16' W 076°34'0 0.0
2018-Jul-13 09:29N 39°16' W 076°34'0 0.0
2018-Jul-13 08:59N 39°16' W 076°34'0 0.0
2018-Jul-13 08:29N 39°16' W 076°34'0 0.0
2018-Jul-13 07:59N 39°16' W 076°34'0 0.0
2018-Jul-13 07:29N 39°16' W 076°34'0 0.0
2018-Jul-13 06:59N 39°16' W 076°34'0 0.0
2018-Jul-13 06:29N 39°16' W 076°34'0 0.0
2018-Jul-13 05:59N 39°16' W 076°34'0 0.0
2018-Jul-13 05:29N 39°16' W 076°34'0 0.0
2018-Jul-13 04:59N 39°16' W 076°34'0 0.0
2018-Jul-13 04:29N 39°16' W 076°34'0 0.0
2018-Jul-13 03:59N 39°16' W 076°34'0 0.0
2018-Jul-13 03:29N 39°16' W 076°34'0 0.0
2018-Jul-13 02:59N 39°16' W 076°34'0 0.0
2018-Jul-13 02:29N 39°16' W 076°34'0 0.0
2018-Jul-13 01:56N 39°16' W 076°34'0 0.0
2018-Jul-13 01:29N 39°16' W 076°34'0 0.0
2018-Jul-13 00:59N 39°16' W 076°34'0 0.0
2018-Jul-13 00:29N 39°16' W 076°34'0 0.0
2018-Jul-12 23:59N 39°16' W 076°34'0 0.0
2018-Jul-12 23:29N 39°16' W 076°34'0 0.0
2018-Jul-12 22:59N 39°16' W 076°34'0 0.0
2018-Jul-12 22:29N 39°16' W 076°34'0 0.0
2018-Jul-12 21:59N 39°16' W 076°34'0 0.0
2018-Jul-12 21:29N 39°16' W 076°34'0 0.0
2018-Jul-12 20:59N 39°16' W 076°34'0 0.0
2018-Jul-12 20:29N 39°16' W 076°34'0 0.0
2018-Jul-12 19:59N 39°16' W 076°34'0 0.0
2018-Jul-12 19:29N 39°16' W 076°34'0 0.0
2018-Jul-12 18:59N 39°16' W 076°34'0 0.0
2018-Jul-12 18:29N 39°16' W 076°34'0 0.0
2018-Jul-12 17:59N 39°16' W 076°34'0 0.0
2018-Jul-12 17:29N 39°16' W 076°34'0 0.0
2018-Jul-12 16:59N 39°16' W 076°34'0 0.0
2018-Jul-12 16:29N 39°16' W 076°34'0 0.0
2018-Jul-12 15:59N 39°16' W 076°34'0 0.0
2018-Jul-12 15:29N 39°16' W 076°34'0 0.0
2018-Jul-12 14:59N 39°16' W 076°34'0 0.0
2018-Jul-12 14:29N 39°16' W 076°34'0 0.0
2018-Jul-12 13:59N 39°16' W 076°34'0 0.0
2018-Jul-12 13:29N 39°16' W 076°34'0 0.0
2018-Jul-12 12:59N 39°16' W 076°34'0 0.0
2018-Jul-12 12:30N 39°16' W 076°34'0 0.1
2018-Jul-12 12:00N 39°16' W 076°34'2 3.1
2018-Jul-12 11:30N 39°14' W 076°33'4 7.2
2018-Jul-12 11:01N 39°12' W 076°30'5 9.9
2018-Jul-12 10:31N 39°09' W 076°25'611.2
2018-Jul-12 10:01N 39°03' W 076°23'611.9
2018-Jul-12 09:31N 38°57' W 076°23'714.5
2018-Jul-12 09:00N 38°50' W 076°24'815.2
2018-Jul-12 08:29N 38°42' W 076°26'1714.6
2018-Jul-12 07:18N 38°25' W 076°21'815.6
2018-Jul-12 06:46N 38°18' W 076°17'415.5
2018-Jul-12 06:30N 38°14' W 076°16'815.1
2018-Jul-12 05:56N 38°06' W 076°13'714.8
2018-Jul-12 05:29N 37°59' W 076°11'714.7
2018-Jul-12 04:59N 37°52' W 076°10'715.3
2018-Jul-12 04:31N 37°44' W 076°11'1014.7
2018-Jul-12 03:50N 37°36' W 076°04'514.1
2018-Jul-12 03:30N 37°31' W 076°03'714.9
2018-Jul-12 03:00N 37°24' W 076°05'15711.5
2018-Jul-11 13:23N 34°57' W 074°58'1016.2
2018-Jul-11 12:48N 34°50' W 075°06'516.1
2018-Jul-11 12:30N 34°46' W 075°10'815.9
2018-Jul-11 12:01N 34°40' W 075°16'3516.1
2018-Jul-11 09:51N 34°15' W 075°45'1215.9
2018-Jul-11 09:05N 34°05' W 075°54'  
Track history (hours):
 
Tides and Currents Weather Stations Pressure Air Temp Water Temp Dewpoint Dewpoint Depression Visibility Wind Speed Wind Dir Waves Ship Positions

Star Lygra

Last reported at 2018-Jul-21 07:09 UTC. Time now 2018-Jul-22 12:48 UTC.
Position N 31°58' W 080°19'.

Length 204 m; draft 7.9 m.

Type: Cargo ship. MMSI: 538005562.

Date/timePositionNaut miles runAvg speedWind from/ knotsBaromVisibWave heightAir tempDewpointWater temp
2018-Jul-21 07:09N 31°58' W 080°19'314.1
2018-Jul-21 06:58N 31°58' W 080°22'714.0
2018-Jul-21 06:30N 31°57' W 080°30'713.9
2018-Jul-21 06:00N 31°57' W 080°38'612.5
2018-Jul-21 05:30N 31°59' W 080°45'612.0
2018-Jul-21 05:00N 32°02' W 080°51'5 9.8
2018-Jul-21 04:30N 32°04' W 080°57'5 8.6
2018-Jul-21 03:58N 32°05' W 081°02'3 7.5
2018-Jul-21 03:30N 32°05' W 081°06'1 2.6
2018-Jul-21 03:00N 32°06' W 081°07'1 2.3
2018-Jul-21 02:27N 32°05' W 081°06'0 0.0
2018-Jul-21 01:57N 32°05' W 081°06'0 0.0
2018-Jul-21 01:27N 32°05' W 081°06'0 0.0
2018-Jul-21 00:57N 32°05' W 081°06'0 0.0
2018-Jul-21 00:27N 32°05' W 081°06'0 0.0
2018-Jul-20 23:51N 32°05' W 081°06'0 0.0
2018-Jul-20 23:27N 32°05' W 081°06'0 0.0
2018-Jul-20 22:57N 32°05' W 081°06'0 0.0
2018-Jul-20 22:27N 32°05' W 081°06'0 0.0
2018-Jul-20 21:57N 32°05' W 081°06'0 0.0
2018-Jul-20 21:27N 32°05' W 081°06'0 0.0
2018-Jul-20 20:51N 32°05' W 081°06'0 0.0
2018-Jul-20 20:27N 32°05' W 081°06'0 0.0
2018-Jul-20 19:57N 32°05' W 081°06'0 0.0
2018-Jul-20 19:27N 32°05' W 081°06'0 0.0
2018-Jul-20 18:57N 32°05' W 081°06'0 0.0
2018-Jul-20 18:15N 32°05' W 081°06'0 0.0
2018-Jul-20 17:51N 32°05' W 081°06'0 0.0
2018-Jul-20 17:27N 32°05' W 081°06'0 0.0
2018-Jul-20 16:57N 32°05' W 081°06'0 0.0
2018-Jul-20 16:27N 32°05' W 081°06'0 0.0
2018-Jul-20 15:57N 32°05' W 081°06'0 0.0
2018-Jul-20 15:27N 32°05' W 081°06'0 0.0
2018-Jul-20 14:57N 32°05' W 081°06'0 0.0
2018-Jul-20 14:27N 32°05' W 081°06'0 0.0
2018-Jul-20 13:57N 32°05' W 081°06'0 0.0
2018-Jul-20 13:27N 32°05' W 081°06'0 0.0
2018-Jul-20 12:57N 32°05' W 081°06'0 0.0
2018-Jul-20 12:27N 32°05' W 081°06'0 0.0
2018-Jul-20 11:57N 32°05' W 081°06'0 0.0
2018-Jul-20 11:27N 32°05' W 081°06'0 0.0
2018-Jul-20 10:57N 32°05' W 081°06'0 0.0
2018-Jul-20 10:27N 32°05' W 081°06'0 0.0
2018-Jul-20 09:57N 32°05' W 081°06'0 0.0
2018-Jul-20 09:27N 32°05' W 081°06'0 0.0
2018-Jul-20 08:57N 32°05' W 081°06'0 0.0
2018-Jul-20 08:27N 32°05' W 081°06'0 0.0
2018-Jul-20 07:57N 32°05' W 081°06'0 0.0
2018-Jul-20 07:27N 32°05' W 081°06'0 0.0
2018-Jul-20 06:51N 32°05' W 081°06'0 0.0
2018-Jul-20 06:27N 32°05' W 081°06'0 0.0
2018-Jul-20 05:57N 32°05' W 081°06'0 0.0
2018-Jul-20 05:27N 32°05' W 081°06'0 0.0
2018-Jul-20 04:57N 32°05' W 081°06'0 0.0
2018-Jul-20 04:27N 32°05' W 081°06'0 0.0
2018-Jul-20 03:39N 32°05' W 081°06'0 0.0
2018-Jul-20 03:27N 32°05' W 081°06'0 0.0
2018-Jul-20 02:57N 32°05' W 081°06'0 0.0
2018-Jul-20 02:21N 32°05' W 081°06'0 0.0
2018-Jul-20 01:57N 32°05' W 081°06'0 0.0
2018-Jul-20 01:27N 32°05' W 081°06'0 0.0
2018-Jul-20 00:57N 32°05' W 081°06'0 0.0
2018-Jul-20 00:27N 32°05' W 081°06'0 0.0
2018-Jul-19 23:57N 32°05' W 081°06'0 0.0
2018-Jul-19 23:21N 32°05' W 081°06'0 0.0
2018-Jul-19 22:57N 32°05' W 081°06'0 0.0
2018-Jul-19 22:27N 32°05' W 081°06'0 0.0
2018-Jul-19 21:57N 32°05' W 081°06'0 0.0
2018-Jul-19 21:27N 32°05' W 081°06'0 0.0
2018-Jul-19 20:51N 32°05' W 081°06'0 0.0
2018-Jul-19 20:27N 32°05' W 081°06'0 0.0
2018-Jul-19 19:57N 32°05' W 081°06'0 0.0
2018-Jul-19 19:27N 32°05' W 081°06'0 0.0
2018-Jul-19 18:57N 32°05' W 081°06'0 0.0
2018-Jul-19 18:27N 32°05' W 081°06'0 0.0
2018-Jul-19 17:57N 32°05' W 081°06'0 0.0
2018-Jul-19 17:21N 32°05' W 081°06'0 0.0
2018-Jul-19 16:57N 32°05' W 081°06'0 0.0
2018-Jul-19 16:21N 32°05' W 081°06'0 0.0
2018-Jul-19 15:57N 32°05' W 081°06'0 0.0
2018-Jul-19 15:21N 32°05' W 081°06'0 0.0
2018-Jul-19 14:57N 32°05' W 081°06'0 0.0
2018-Jul-19 14:27N 32°05' W 081°06'0 0.0
2018-Jul-19 13:27N 32°05' W 081°06'0 0.0
2018-Jul-19 12:57N 32°05' W 081°06'0 0.0
2018-Jul-19 12:27N 32°05' W 081°06'0 0.0
2018-Jul-19 11:57N 32°05' W 081°06'0 0.0
2018-Jul-19 11:27N 32°05' W 081°06'0 0.0
2018-Jul-19 10:51N 32°05' W 081°06'0 0.0
2018-Jul-19 10:27N 32°05' W 081°06'0 0.0
2018-Jul-19 09:57N 32°05' W 081°06'0 0.0
2018-Jul-19 09:27N 32°05' W 081°06'0 0.0
2018-Jul-19 08:57N 32°05' W 081°06'0 0.0
2018-Jul-19 08:27N 32°05' W 081°06'0 0.0
2018-Jul-19 07:57N 32°05' W 081°06'0 0.0
2018-Jul-19 07:27N 32°05' W 081°06'0 0.0
2018-Jul-19 06:57N 32°05' W 081°06'0 0.0
2018-Jul-19 06:27N 32°05' W 081°06'0 0.0
2018-Jul-19 05:51N 32°05' W 081°06'0 0.0
2018-Jul-19 05:27N 32°05' W 081°06'0 0.0
2018-Jul-19 04:45N 32°05' W 081°06'0 0.0
2018-Jul-19 04:27N 32°05' W 081°06'0 0.0
2018-Jul-19 03:57N 32°05' W 081°06'0 0.0
2018-Jul-19 03:27N 32°05' W 081°06'0 0.0
2018-Jul-19 02:57N 32°05' W 081°06'0 0.0
2018-Jul-19 02:27N 32°05' W 081°06'0 0.0
2018-Jul-19 01:57N 32°05' W 081°06'0 0.0
2018-Jul-19 01:27N 32°05' W 081°06'0 0.0
2018-Jul-19 00:57N 32°05' W 081°06'0 0.0
2018-Jul-19 00:27N 32°05' W 081°06'0 0.0
2018-Jul-18 23:57N 32°05' W 081°06'0 0.0
2018-Jul-18 23:27N 32°05' W 081°06'0 0.0
2018-Jul-18 22:57N 32°05' W 081°06'0 0.0
2018-Jul-18 22:27N 32°05' W 081°06'0 0.0
2018-Jul-18 21:45N 32°05' W 081°06'0 0.0
2018-Jul-18 21:27N 32°05' W 081°06'0 0.0
2018-Jul-18 20:57N 32°05' W 081°06'0 0.0
2018-Jul-18 20:27N 32°05' W 081°06'0 0.0
2018-Jul-18 19:57N 32°05' W 081°06'0 0.0
2018-Jul-18 19:27N 32°05' W 081°06'0 0.0
2018-Jul-18 18:57N 32°05' W 081°06'0 0.0
2018-Jul-18 18:27N 32°05' W 081°06'0 0.0
2018-Jul-18 17:57N 32°05' W 081°06'0 0.0
2018-Jul-18 17:27N 32°05' W 081°06'0 0.0
2018-Jul-18 16:57N 32°05' W 081°06'0 0.0
2018-Jul-18 16:27N 32°05' W 081°06'0 0.0
2018-Jul-18 15:57N 32°05' W 081°06'0 0.0
2018-Jul-18 15:27N 32°05' W 081°06'0 0.0
2018-Jul-18 14:57N 32°05' W 081°06'0 0.0
2018-Jul-18 14:27N 32°05' W 081°06'0 0.0
2018-Jul-18 13:27N 32°05' W 081°06'0 0.0
2018-Jul-18 12:57N 32°05' W 081°06'0 0.0
2018-Jul-18 12:27N 32°05' W 081°06'0 0.0
2018-Jul-18 11:45N 32°05' W 081°06'0 0.0
2018-Jul-18 11:27N 32°05' W 081°06'0 0.0
2018-Jul-18 10:21N 32°05' W 081°06'0 0.0
2018-Jul-18 09:57N 32°05' W 081°06'0 0.0
2018-Jul-18 09:27N 32°05' W 081°06'0 0.0
2018-Jul-18 08:51N 32°05' W 081°06'0 0.0
2018-Jul-18 08:27N 32°05' W 081°06'0 0.0
2018-Jul-18 07:57N 32°05' W 081°06'0 0.0
2018-Jul-18 07:27N 32°05' W 081°06'0 0.0
2018-Jul-18 06:57N 32°05' W 081°06'0 0.0
2018-Jul-18 06:27N 32°05' W 081°06'0 0.0
2018-Jul-18 05:57N 32°05' W 081°06'0 0.0
2018-Jul-18 05:27N 32°05' W 081°06'0 0.0
2018-Jul-18 04:57N 32°05' W 081°06'0 0.0
2018-Jul-18 04:27N 32°05' W 081°06'0 0.0
2018-Jul-18 03:51N 32°05' W 081°06'0 0.9
2018-Jul-18 03:30N 32°05' W 081°06'4 7.7
2018-Jul-18 03:00N 32°05' W 081°01'611.9
2018-Jul-18 02:30N 32°02' W 080°55'713.3
2018-Jul-18 02:00N 32°00' W 080°48'612.7
2018-Jul-18 01:31N 31°57' W 080°41'4 8.9
2018-Jul-18 01:00N 31°58' W 080°36'613.1
2018-Jul-18 00:31N 31°60' W 080°29'611.2
2018-Jul-18 00:00N 32°02' W 080°23'713.3
2018-Jul-17 23:28N 32°06' W 080°16'44 9.5
2018-Jul-17 18:52N 32°44' W 079°51'512.6
2018-Jul-17 18:30N 32°47' W 079°55'1 2.0
2018-Jul-17 18:00N 32°48' W 079°56'0 0.0
2018-Jul-17 17:30N 32°48' W 079°56'0 0.0
2018-Jul-17 17:00N 32°48' W 079°56'0 0.0
2018-Jul-17 16:30N 32°48' W 079°56'0 0.0
2018-Jul-17 16:00N 32°48' W 079°56'0 0.0
2018-Jul-17 15:30N 32°48' W 079°56'0 0.0
2018-Jul-17 15:00N 32°48' W 079°56'0 0.0
2018-Jul-17 14:30N 32°48' W 079°56'0 0.0
2018-Jul-17 14:00N 32°48' W 079°56'0 0.0
2018-Jul-17 13:30N 32°48' W 079°56'0 0.0
2018-Jul-17 13:00N 32°48' W 079°56'0 0.0
2018-Jul-17 12:30N 32°48' W 079°56'0 0.0
2018-Jul-17 12:00N 32°48' W 079°56'0 0.0
2018-Jul-17 11:27N 32°48' W 079°56'0 0.0
2018-Jul-17 10:57N 32°48' W 079°56'0 0.0
2018-Jul-17 10:24N 32°48' W 079°56'0 0.0
2018-Jul-17 10:00N 32°48' W 079°56'0 0.0
2018-Jul-17 09:30N 32°48' W 079°56'0 0.0
2018-Jul-17 09:00N 32°48' W 079°56'0 0.0
2018-Jul-17 08:30N 32°48' W 079°56'0 0.0
2018-Jul-17 08:00N 32°48' W 079°56'0 0.0
2018-Jul-17 07:30N 32°48' W 079°56'0 0.0
2018-Jul-17 07:00N 32°48' W 079°56'0 0.0
2018-Jul-17 06:30N 32°48' W 079°56'0 0.0
2018-Jul-17 06:00N 32°48' W 079°56'0 0.0
2018-Jul-17 05:30N 32°48' W 079°56'0 0.0
2018-Jul-17 05:00N 32°48' W 079°56'0 0.0
2018-Jul-17 04:30N 32°48' W 079°56'0 0.0
2018-Jul-17 04:00N 32°48' W 079°56'0 0.0
2018-Jul-17 03:30N 32°48' W 079°56'0 0.0
2018-Jul-17 03:00N 32°48' W 079°56'0 0.0
2018-Jul-17 02:30N 32°48' W 079°56'0 0.0
2018-Jul-17 02:00N 32°48' W 079°56'0 0.0
2018-Jul-17 01:30N 32°48' W 079°56'0 0.0
2018-Jul-17 01:00N 32°48' W 079°56'0 0.0
2018-Jul-17 00:30N 32°48' W 079°56'1 1.4
2018-Jul-16 23:30N 32°47' W 079°54'611.2
2018-Jul-16 23:00N 32°44' W 079°49'315 9.5
2018-Jul-15 13:52N 36°34' W 075°29'613.0
2018-Jul-15 13:23N 36°39' W 075°35'513.1
2018-Jul-15 13:00N 36°42' W 075°39'713.2
2018-Jul-15 12:30N 36°47' W 075°44'713.6
2018-Jul-15 12:00N 36°51' W 075°52'813.0
2018-Jul-15 11:25N 36°57' W 075°58'411.1
2018-Jul-15 11:00N 37°00' W 076°02'1016.9
2018-Jul-15 10:24N 37°09' W 076°09'816.1
2018-Jul-15 09:55N 37°16' W 076°07'616.0
2018-Jul-15 09:31N 37°23' W 076°05'915.2
2018-Jul-15 08:55N 37°31' W 076°03'614.7
2018-Jul-15 08:30N 37°37' W 076°06'815.1
2018-Jul-15 08:00N 37°43' W 076°11'714.5
2018-Jul-15 07:30N 37°51' W 076°10'713.5
2018-Jul-15 07:00N 37°57' W 076°11'814.4
2018-Jul-15 06:27N 38°05' W 076°13'714.6
2018-Jul-15 06:00N 38°11' W 076°14'714.7
2018-Jul-15 05:30N 38°18' W 076°18'814.9
2018-Jul-15 05:00N 38°25' W 076°21'815.3
2018-Jul-15 04:30N 38°32' W 076°25'714.8
2018-Jul-15 04:00N 38°39' W 076°25'815.0
2018-Jul-15 03:30N 38°47' W 076°25'815.1
2018-Jul-15 03:00N 38°54' W 076°24'714.2
2018-Jul-15 02:30N 39°01' W 076°23'713.1
2018-Jul-15 02:00N 39°08' W 076°24'611.1
2018-Jul-15 01:30N 39°12' W 076°29'5 9.4
2018-Jul-15 01:00N 39°15' W 076°34'1 1.5
2018-Jul-15 00:30N 39°16' W 076°34'0 0.0
2018-Jul-15 00:00N 39°16' W 076°34'0 0.0
2018-Jul-14 23:30N 39°16' W 076°34'0 0.0
2018-Jul-14 22:59N 39°16' W 076°34'0 0.0
2018-Jul-14 22:30N 39°16' W 076°34'0 0.0
2018-Jul-14 22:00N 39°16' W 076°34'0 0.0
2018-Jul-14 21:30N 39°16' W 076°34'0 0.0
2018-Jul-14 21:00N 39°16' W 076°34'0 0.0
2018-Jul-14 20:30N 39°16' W 076°34'0 0.0
2018-Jul-14 20:00N 39°16' W 076°34'0 0.0
2018-Jul-14 19:30N 39°16' W 076°34'0 0.0
2018-Jul-14 18:59N 39°16' W 076°34'0 0.0
2018-Jul-14 18:30N 39°16' W 076°34'0 0.0
2018-Jul-14 17:59N 39°16' W 076°34'0 0.0
2018-Jul-14 17:29N 39°16' W 076°34'0 0.0
2018-Jul-14 16:59N 39°16' W 076°34'0 0.0
2018-Jul-14 16:30N 39°16' W 076°34'0 0.0
2018-Jul-14 16:00N 39°16' W 076°34'0 0.0
2018-Jul-14 15:30N 39°16' W 076°34'0 0.0
2018-Jul-14 15:00N 39°16' W 076°34'0 0.0
2018-Jul-14 14:29N 39°16' W 076°34'0 0.0
2018-Jul-14 13:30N 39°16' W 076°34'0 0.0
2018-Jul-14 12:59N 39°16' W 076°34'0 0.0
2018-Jul-14 12:30N 39°16' W 076°34'0 0.0
2018-Jul-14 12:00N 39°16' W 076°34'0 0.0
2018-Jul-14 11:29N 39°16' W 076°34'0 0.0
2018-Jul-14 10:59N 39°16' W 076°34'0 0.0
2018-Jul-14 10:29N 39°16' W 076°34'0 0.0
2018-Jul-14 09:59N 39°16' W 076°34'0 0.0
2018-Jul-14 09:30N 39°16' W 076°34'0 0.0
2018-Jul-14 08:59N 39°16' W 076°34'0 0.0
2018-Jul-14 08:30N 39°16' W 076°34'0 0.0
2018-Jul-14 07:59N 39°16' W 076°34'0 0.0
2018-Jul-14 07:29N 39°16' W 076°34'0 0.0
2018-Jul-14 06:59N 39°16' W 076°34'0 0.0
2018-Jul-14 06:29N 39°16' W 076°34'0 0.0
2018-Jul-14 06:00N 39°16' W 076°34'0 0.0
2018-Jul-14 05:29N 39°16' W 076°34'0 0.0
2018-Jul-14 04:59N 39°16' W 076°34'0 0.0
2018-Jul-14 04:30N 39°16' W 076°34'0 0.0
2018-Jul-14 03:59N 39°16' W 076°34'0 0.0
2018-Jul-14 03:29N 39°16' W 076°34'0 0.0
2018-Jul-14 02:59N 39°16' W 076°34'0 0.0
2018-Jul-14 02:29N 39°16' W 076°34'0 0.0
2018-Jul-14 02:00N 39°16' W 076°34'0 0.0
2018-Jul-14 01:29N 39°16' W 076°34'0 0.0
2018-Jul-14 01:00N 39°16' W 076°34'0 0.0
2018-Jul-14 00:29N 39°16' W 076°34'0 0.0
2018-Jul-13 23:59N 39°16' W 076°34'0 0.0
2018-Jul-13 23:29N 39°16' W 076°34'0 0.0
2018-Jul-13 23:00N 39°16' W 076°34'0 0.0
2018-Jul-13 22:29N 39°16' W 076°34'0 0.0
2018-Jul-13 21:59N 39°16' W 076°34'0 0.0
2018-Jul-13 21:29N 39°16' W 076°34'0 0.0
2018-Jul-13 20:59N 39°16' W 076°34'0 0.0
2018-Jul-13 20:29N 39°16' W 076°34'0 0.0
2018-Jul-13 19:59N 39°16' W 076°34'0 0.0
2018-Jul-13 19:30N 39°16' W 076°34'0 0.0
2018-Jul-13 18:59N 39°16' W 076°34'0 0.0
2018-Jul-13 18:29N 39°16' W 076°34'0 0.0
2018-Jul-13 17:59N 39°16' W 076°34'0 0.0
2018-Jul-13 17:30N 39°16' W 076°34'0 0.0
2018-Jul-13 16:59N 39°16' W 076°34'0 0.0
2018-Jul-13 16:29N 39°16' W 076°34'0 0.0
2018-Jul-13 16:00N 39°16' W 076°34'0 0.0
2018-Jul-13 15:29N 39°16' W 076°34'0 0.0
2018-Jul-13 14:59N 39°16' W 076°34'0 0.0
2018-Jul-13 14:29N 39°16' W 076°34'0 0.0
2018-Jul-13 13:29N 39°16' W 076°34'0 0.0
2018-Jul-13 12:59N 39°16' W 076°34'0 0.0
2018-Jul-13 12:29N 39°16' W 076°34'0 0.0
2018-Jul-13 11:59N 39°16' W 076°34'0 0.0
2018-Jul-13 11:29N 39°16' W 076°34'0 0.0
2018-Jul-13 11:00N 39°16' W 076°34'0 0.0
2018-Jul-13 10:30N 39°16' W 076°34'0 0.0
2018-Jul-13 09:59N 39°16' W 076°34'0 0.0
2018-Jul-13 09:29N 39°16' W 076°34'0 0.0
2018-Jul-13 08:59N 39°16' W 076°34'0 0.0
2018-Jul-13 08:29N 39°16' W 076°34'0 0.0
2018-Jul-13 07:59N 39°16' W 076°34'0 0.0
2018-Jul-13 07:29N 39°16' W 076°34'0 0.0
2018-Jul-13 06:59N 39°16' W 076°34'0 0.0
2018-Jul-13 06:29N 39°16' W 076°34'0 0.0
2018-Jul-13 05:59N 39°16' W 076°34'0 0.0
2018-Jul-13 05:29N 39°16' W 076°34'0 0.0
2018-Jul-13 04:59N 39°16' W 076°34'0 0.0
2018-Jul-13 04:29N 39°16' W 076°34'0 0.0
2018-Jul-13 03:59N 39°16' W 076°34'0 0.0
2018-Jul-13 03:29N 39°16' W 076°34'0 0.0
2018-Jul-13 02:59N 39°16' W 076°34'0 0.0
2018-Jul-13 02:29N 39°16' W 076°34'0 0.0
2018-Jul-13 01:56N 39°16' W 076°34'0 0.0
2018-Jul-13 01:29N 39°16' W 076°34'0 0.0
2018-Jul-13 00:59N 39°16' W 076°34'0 0.0
2018-Jul-13 00:29N 39°16' W 076°34'0 0.0
2018-Jul-12 23:59N 39°16' W 076°34'0 0.0
2018-Jul-12 23:29N 39°16' W 076°34'0 0.0
2018-Jul-12 22:59N 39°16' W 076°34'0 0.0
2018-Jul-12 22:29N 39°16' W 076°34'0 0.0
2018-Jul-12 21:59N 39°16' W 076°34'0 0.0
2018-Jul-12 21:29N 39°16' W 076°34'0 0.0
2018-Jul-12 20:59N 39°16' W 076°34'0 0.0
2018-Jul-12 20:29N 39°16' W 076°34'0 0.0
2018-Jul-12 19:59N 39°16' W 076°34'0 0.0
2018-Jul-12 19:29N 39°16' W 076°34'0 0.0
2018-Jul-12 18:59N 39°16' W 076°34'0 0.0
2018-Jul-12 18:29N 39°16' W 076°34'0 0.0
2018-Jul-12 17:59N 39°16' W 076°34'0 0.0
2018-Jul-12 17:29N 39°16' W 076°34'0 0.0
2018-Jul-12 16:59N 39°16' W 076°34'0 0.0
2018-Jul-12 16:29N 39°16' W 076°34'0 0.0
2018-Jul-12 15:59N 39°16' W 076°34'0 0.0
2018-Jul-12 15:29N 39°16' W 076°34'0 0.0
2018-Jul-12 14:59N 39°16' W 076°34'0 0.0
2018-Jul-12 14:29N 39°16' W 076°34'0 0.0
2018-Jul-12 13:59N 39°16' W 076°34'0 0.0
2018-Jul-12 13:29N 39°16' W 076°34'0 0.0
2018-Jul-12 12:59N 39°16' W 076°34'0 0.0
2018-Jul-12 12:30N 39°16' W 076°34'0 0.1
2018-Jul-12 12:00N 39°16' W 076°34'2 3.1
2018-Jul-12 11:30N 39°14' W 076°33'4 7.2
2018-Jul-12 11:01N 39°12' W 076°30'5 9.9
2018-Jul-12 10:31N 39°09' W 076°25'611.2
2018-Jul-12 10:01N 39°03' W 076°23'611.9
2018-Jul-12 09:31N 38°57' W 076°23'714.5
2018-Jul-12 09:00N 38°50' W 076°24'815.2
2018-Jul-12 08:29N 38°42' W 076°26'1714.6
2018-Jul-12 07:18N 38°25' W 076°21'815.6
2018-Jul-12 06:46N 38°18' W 076°17'415.5
2018-Jul-12 06:30N 38°14' W 076°16'815.1
2018-Jul-12 05:56N 38°06' W 076°13'714.8
2018-Jul-12 05:29N 37°59' W 076°11'714.7
2018-Jul-12 04:59N 37°52' W 076°10'715.3
2018-Jul-12 04:31N 37°44' W 076°11'1014.7
2018-Jul-12 03:50N 37°36' W 076°04'514.1
2018-Jul-12 03:30N 37°31' W 076°03'714.9
2018-Jul-12 03:00N 37°24' W 076°05'15711.5
2018-Jul-11 13:23N 34°57' W 074°58'1016.2
2018-Jul-11 12:48N 34°50' W 075°06'516.1
2018-Jul-11 12:30N 34°46' W 075°10'815.9
2018-Jul-11 12:01N 34°40' W 075°16'3516.1
2018-Jul-11 09:51N 34°15' W 075°45'1215.9
2018-Jul-11 09:05N 34°05' W 075°54'  

Dump ship's entire track history